SPCL/PCL METAR and TAF weather

Enter ICAO airport designator
Station Type Date Time Source
SPCL METAR 2021/09/28 03:00 UTC NOAA

SPCL 280300Z 00000KT 9999 FEW020 27/24 Q1012 RMK PP000


Station Type Date Time Source
SPCL Decoded METAR 2021/09/28 03:00 UTC NOAA

Pucallpa, Peru (SPCL) 08-25S 074-36W 149M
Sep 27, 2021 - 11:00 PM EDT / 2021.09.28 0300 UTC
Wind: Calm:0
Visibility: greater than 7 mile(s):0
Sky conditions: mostly clear
Temperature: 80 F (27 C)
Dew Point: 75 F (24 C)
Relative Humidity: 83%
Pressure (altimeter): 29.88 in. Hg (1012 hPa)
ob: SPCL 280300Z 00000KT 9999 FEW020 27/24 Q1012 RMK PP000
cycle: 3

Station Type Date Time Source
SPCL TAF 2021/09/27 18:42 UTC NOAA

TAF TAF SPCL 271700Z 2718/2818 03005KT 9999 SCT020 TX35/2720Z TN23/2811Z
TEMPO 2810/2813 2000 BR BKN005

Example: see airport list